Time;durP1;ratioP1;P1;durP2;ratioP2;P2;SDS_P1;SDS_P2;PMS_P1;PMS_P2;Temp;Humidity;BMP_temperature;BMP_pressure;BME280_temperature;BME280_humidity;BME280_pressure;Samples;Min_cycle;Max_cycle;Signal;HPM_P1;HPM_P2
2022/06/27 00:00:51;;;;;;;;;;;18.60;99.90;;;;;;5083473;27;39218;-53
2022/06/27 00:03:18;;;;;;;;;;;18.60;99.90;;;;;;5084113;27;39531;-54
2022/06/27 00:05:45;;;;;;;;;;;18.60;99.90;;;;;;5084607;27;37397;-54
2022/06/27 00:08:13;;;;;;;;;;;18.50;99.90;;;;;;5084153;27;37230;-55
2022/06/27 00:10:40;;;;;;;;;;;18.50;99.90;;;;;;5082537;28;38540;-54
2022/06/27 00:13:07;;;;;;;;;;;18.50;99.90;;;;;;5083453;28;39521;-54
2022/06/27 00:15:35;;;;;;;;;;;18.50;99.90;;;;;;5084225;27;36695;-54
2022/06/27 00:18:03;;;;;;;;;;;18.50;99.90;;;;;;5082659;27;37549;-54
2022/06/27 00:20:30;;;;;;;;;;;18.50;99.90;;;;;;5083900;27;37050;-54
2022/06/27 00:22:57;;;;;;;;;;;18.50;99.90;;;;;;5082679;27;38138;-53
2022/06/27 00:25:24;;;;;;;;;;;18.50;99.90;;;;;;5082873;27;36995;-54
2022/06/27 00:27:51;;;;;;;;;;;18.50;99.90;;;;;;5082991;27;38365;-54
2022/06/27 00:30:18;;;;;;;;;;;18.50;99.90;;;;;;5082786;27;39268;-54
2022/06/27 00:32:48;;;;;;;;;;;18.50;99.90;;;;;;5082768;27;38231;-55
2022/06/27 00:35:15;;;;;;;;;;;18.40;99.90;;;;;;5081335;27;35174;-54
2022/06/27 00:37:42;;;;;;;;;;;18.40;99.90;;;;;;5083406;27;37959;-54
2022/06/27 00:40:09;;;;;;;;;;;18.40;99.90;;;;;;5084131;27;39253;-54
2022/06/27 00:42:37;;;;;;;;;;;18.40;99.90;;;;;;5082145;28;37348;-54
2022/06/27 00:45:04;;;;;;;;;;;18.50;99.90;;;;;;5082768;27;37218;-54
2022/06/27 00:47:31;;;;;;;;;;;18.50;99.90;;;;;;5082345;28;36598;-54
2022/06/27 00:49:59;;;;;;;;;;;18.40;99.90;;;;;;5082450;27;39029;-54
2022/06/27 00:52:27;;;;;;;;;;;18.40;99.90;;;;;;5083125;27;38787;-54
2022/06/27 00:54:54;;;;;;;;;;;18.40;99.90;;;;;;5081968;27;37322;-55
2022/06/27 00:57:21;;;;;;;;;;;18.30;99.90;;;;;;5080521;27;37404;-54
2022/06/27 00:59:48;;;;;;;;;;;18.40;99.90;;;;;;5080850;27;40447;-54
2022/06/27 01:02:15;;;;;;;;;;;18.40;99.90;;;;;;5081459;27;36435;-54
2022/06/27 01:04:43;;;;;;;;;;;18.40;99.90;;;;;;5078976;27;36207;-54
2022/06/27 01:07:14;;;;;;;;;;;18.30;99.90;;;;;;5080869;27;38355;-54
2022/06/27 01:09:41;;;;;;;;;;;18.40;99.90;;;;;;5083420;27;38214;-54
2022/06/27 01:12:09;;;;;;;;;;;18.40;99.90;;;;;;5081831;27;37792;-54
2022/06/27 01:14:39;;;;;;;;;;;18.40;99.90;;;;;;5082357;27;37277;-54
2022/06/27 01:17:06;;;;;;;;;;;18.30;99.90;;;;;;5081002;27;37880;-54
2022/06/27 01:19:33;;;;;;;;;;;18.30;99.90;;;;;;5081554;27;40694;-54
2022/06/27 01:22:00;;;;;;;;;;;18.30;99.90;;;;;;5080902;27;39643;-54
2022/06/27 01:24:29;;;;;;;;;;;18.30;99.90;;;;;;5083273;27;36161;-54
2022/06/27 01:26:56;;;;;;;;;;;18.20;99.90;;;;;;5081381;27;39048;-55
2022/06/27 01:29:23;;;;;;;;;;;18.30;99.90;;;;;;5081774;28;37529;-54
2022/06/27 01:31:50;;;;;;;;;;;18.30;99.90;;;;;;5081216;27;38581;-55
2022/06/27 01:34:18;;;;;;;;;;;18.30;99.90;;;;;;5082796;27;36153;-54
2022/06/27 01:36:46;;;;;;;;;;;18.30;99.90;;;;;;5082321;27;36448;-54
2022/06/27 01:39:13;;;;;;;;;;;18.30;99.90;;;;;;5082649;27;38990;-53
2022/06/27 01:41:43;;;;;;;;;;;18.30;99.90;;;;;;5081609;27;38060;-54
2022/06/27 01:44:11;;;;;;;;;;;18.30;99.90;;;;;;5082235;28;39329;-54
2022/06/27 01:46:38;;;;;;;;;;;18.20;99.90;;;;;;5082616;27;37307;-54
2022/06/27 01:49:05;;;;;;;;;;;18.20;99.90;;;;;;5081194;28;38858;-54
2022/06/27 01:51:33;;;;;;;;;;;18.20;99.90;;;;;;5081348;28;38136;-52
2022/06/27 01:54:00;;;;;;;;;;;18.20;99.90;;;;;;5082049;27;36566;-54
2022/06/27 01:56:27;;;;;;;;;;;18.20;99.90;;;;;;5081124;27;36589;-53
2022/06/27 01:58:57;;;;;;;;;;;18.20;99.90;;;;;;5082503;27;38312;-54
2022/06/27 02:01:25;;;;;;;;;;;18.20;99.90;;;;;;5081774;27;38913;-54
2022/06/27 02:03:52;;;;;;;;;;;18.20;99.90;;;;;;5083136;27;36045;-54
2022/06/27 02:06:19;;;;;;;;;;;18.20;99.90;;;;;;5081829;28;38998;-54
2022/06/27 02:08:51;;;;;;;;;;;18.20;99.90;;;;;;5083076;27;32322;-54
2022/06/27 02:11:18;;;;;;;;;;;18.20;99.90;;;;;;5078729;27;36390;-54
2022/06/27 02:13:45;;;;;;;;;;;18.20;99.90;;;;;;5082179;28;36293;-54
2022/06/27 02:16:14;;;;;;;;;;;18.20;99.90;;;;;;5083029;27;36559;-54
2022/06/27 02:18:42;;;;;;;;;;;18.10;99.90;;;;;;5085252;27;39114;-54
2022/06/27 02:21:10;;;;;;;;;;;18.20;99.90;;;;;;5084011;27;37104;-54
2022/06/27 02:23:38;;;;;;;;;;;18.20;99.90;;;;;;5085025;27;36147;-54
2022/06/27 02:26:06;;;;;;;;;;;18.10;99.90;;;;;;5084831;27;37414;-54
2022/06/27 02:28:34;;;;;;;;;;;18.10;99.90;;;;;;5085825;28;36652;-54
2022/06/27 02:31:02;;;;;;;;;;;18.10;99.90;;;;;;5084197;27;37506;-54
2022/06/27 02:33:34;;;;;;;;;;;18.10;99.90;;;;;;5084390;27;37827;-53
2022/06/27 02:36:02;;;;;;;;;;;18.10;99.90;;;;;;5084091;27;37816;-53
2022/06/27 02:38:30;;;;;;;;;;;18.10;99.90;;;;;;5083431;27;39111;-53
2022/06/27 02:40:58;;;;;;;;;;;18.10;99.90;;;;;;5084588;27;36182;-53
2022/06/27 02:43:26;;;;;;;;;;;18.10;99.90;;;;;;5084580;27;35805;-53
2022/06/27 02:45:54;;;;;;;;;;;18.10;99.90;;;;;;5085123;27;37531;-53
2022/06/27 02:48:23;;;;;;;;;;;18.10;99.90;;;;;;5081066;27;39540;-54
2022/06/27 02:50:52;;;;;;;;;;;18.10;99.90;;;;;;5084435;27;37648;-54
2022/06/27 02:53:20;;;;;;;;;;;18.10;99.90;;;;;;5084549;27;36081;-54
2022/06/27 02:55:49;;;;;;;;;;;18.00;99.90;;;;;;5083586;27;37642;-54
2022/06/27 02:58:19;;;;;;;;;;;18.00;99.90;;;;;;5084400;27;39176;-54
2022/06/27 03:00:49;;;;;;;;;;;18.00;99.90;;;;;;5084504;27;37057;-53
2022/06/27 03:03:17;;;;;;;;;;;17.90;99.90;;;;;;5084471;27;36530;-54
2022/06/27 03:06:01;;;;;;;;;;;17.90;99.90;;;;;;5083830;27;37667;-55
2022/06/27 03:08:36;;;;;;;;;;;17.90;99.90;;;;;;5085414;27;37383;-54
2022/06/27 03:11:03;;;;;;;;;;;17.90;99.90;;;;;;5084373;28;36355;-54
2022/06/27 03:13:30;;;;;;;;;;;17.90;99.90;;;;;;5083198;27;38863;-54
2022/06/27 03:15:57;;;;;;;;;;;17.90;99.90;;;;;;5084009;27;36536;-53
2022/06/27 03:18:24;;;;;;;;;;;17.90;99.90;;;;;;5084203;27;37209;-54
2022/06/27 03:20:51;;;;;;;;;;;17.90;99.90;;;;;;5083291;27;36455;-54
2022/06/27 03:23:19;;;;;;;;;;;17.90;99.90;;;;;;5084902;27;37102;-54
2022/06/27 03:25:47;;;;;;;;;;;17.90;99.90;;;;;;5083743;27;38553;-53
2022/06/27 03:28:14;;;;;;;;;;;17.90;99.90;;;;;;5080586;28;39437;-54
2022/06/27 03:30:41;;;;;;;;;;;17.90;99.90;;;;;;5083886;27;41217;-54
2022/06/27 03:33:08;;;;;;;;;;;17.90;99.90;;;;;;5083208;27;36542;-54
2022/06/27 03:35:35;;;;;;;;;;;17.90;99.90;;;;;;5084319;27;37606;-54
2022/06/27 03:38:02;;;;;;;;;;;17.90;99.90;;;;;;5083768;27;39829;-53
2022/06/27 03:40:31;;;;;;;;;;;17.90;99.90;;;;;;5084608;28;37526;-54
2022/06/27 03:42:58;;;;;;;;;;;17.90;99.90;;;;;;5082676;28;39364;-54
2022/06/27 03:45:25;;;;;;;;;;;17.90;99.90;;;;;;5085323;27;38277;-53
2022/06/27 03:47:53;;;;;;;;;;;17.90;99.90;;;;;;5083650;27;37084;-54
2022/06/27 03:50:20;;;;;;;;;;;17.90;99.90;;;;;;5085622;27;38282;-54
2022/06/27 03:52:47;;;;;;;;;;;17.90;99.90;;;;;;5082514;27;36823;-54
2022/06/27 03:55:14;;;;;;;;;;;18.00;99.90;;;;;;5083590;27;37127;-53
2022/06/27 03:57:48;;;;;;;;;;;18.00;99.90;;;;;;5082677;27;38456;-54
2022/06/27 04:00:15;;;;;;;;;;;18.00;99.90;;;;;;5084239;28;38345;-54
2022/06/27 04:02:43;;;;;;;;;;;18.00;99.90;;;;;;5083517;27;36294;-53
2022/06/27 04:05:10;;;;;;;;;;;18.00;99.90;;;;;;5082986;27;39215;-54
2022/06/27 04:07:38;;;;;;;;;;;18.00;99.90;;;;;;5083210;28;39620;-54
2022/06/27 04:10:06;;;;;;;;;;;18.00;99.90;;;;;;5082951;27;39615;-55
2022/06/27 04:12:33;;;;;;;;;;;18.00;99.90;;;;;;5081615;27;36447;-53
2022/06/27 04:15:02;;;;;;;;;;;18.00;99.90;;;;;;5084240;28;38351;-53
2022/06/27 04:17:29;;;;;;;;;;;18.00;99.90;;;;;;5082460;27;39449;-54
2022/06/27 04:19:56;;;;;;;;;;;18.10;99.90;;;;;;5084093;27;37244;-54
2022/06/27 04:22:23;;;;;;;;;;;18.00;99.90;;;;;;5082961;27;36371;-53
2022/06/27 04:24:50;;;;;;;;;;;18.00;99.90;;;;;;5082157;27;36563;-53
2022/06/27 04:27:19;;;;;;;;;;;18.00;99.90;;;;;;5082117;27;39696;-54
2022/06/27 04:29:48;;;;;;;;;;;18.10;99.90;;;;;;5082771;27;37650;-54
2022/06/27 04:32:16;;;;;;;;;;;18.10;99.90;;;;;;5082373;27;37937;-54
2022/06/27 04:34:44;;;;;;;;;;;18.10;99.90;;;;;;5082426;27;39192;-54
2022/06/27 04:37:11;;;;;;;;;;;18.10;99.90;;;;;;5082282;27;38378;-53
2022/06/27 04:39:38;;;;;;;;;;;18.10;99.90;;;;;;5083028;27;38032;-54
2022/06/27 04:42:06;;;;;;;;;;;18.10;99.90;;;;;;5082946;27;38166;-54
2022/06/27 04:44:34;;;;;;;;;;;18.10;99.90;;;;;;5081801;28;37699;-52
2022/06/27 04:47:02;;;;;;;;;;;18.10;99.90;;;;;;5082714;27;38913;-54
2022/06/27 04:49:30;;;;;;;;;;;18.10;99.90;;;;;;5083211;27;37128;-54
2022/06/27 04:51:58;;;;;;;;;;;18.10;99.90;;;;;;5082958;27;35946;-54
2022/06/27 04:54:26;;;;;;;;;;;18.20;99.90;;;;;;5082495;27;37616;-53
2022/06/27 04:56:54;;;;;;;;;;;18.20;99.90;;;;;;5083466;27;39178;-53
2022/06/27 04:59:21;;;;;;;;;;;18.10;99.90;;;;;;5083535;27;37365;-54
2022/06/27 05:01:50;;;;;;;;;;;18.20;99.90;;;;;;5084233;27;35882;-53
2022/06/27 05:04:17;;;;;;;;;;;18.10;99.90;;;;;;5082575;27;40433;-54
2022/06/27 05:06:46;;;;;;;;;;;18.10;99.90;;;;;;5082563;27;38324;-54
2022/06/27 05:09:14;;;;;;;;;;;18.10;99.90;;;;;;5083784;27;37892;-53
2022/06/27 05:11:41;;;;;;;;;;;18.10;99.90;;;;;;5082353;27;36184;-54
2022/06/27 05:14:08;;;;;;;;;;;18.10;99.90;;;;;;5082702;27;36455;-54
2022/06/27 05:16:36;;;;;;;;;;;18.10;99.90;;;;;;5082671;27;39481;-53
2022/06/27 05:19:03;;;;;;;;;;;18.10;99.90;;;;;;5083471;27;38946;-54
2022/06/27 05:21:30;;;;;;;;;;;18.10;99.90;;;;;;5082530;27;36239;-54
2022/06/27 05:23:58;;;;;;;;;;;18.10;99.90;;;;;;5080991;27;38803;-53
2022/06/27 05:26:26;;;;;;;;;;;18.10;99.90;;;;;;5083159;27;39195;-54
2022/06/27 05:28:53;;;;;;;;;;;18.10;99.90;;;;;;5083466;27;36322;-53
2022/06/27 05:31:20;;;;;;;;;;;18.10;99.90;;;;;;5082593;27;37063;-54
2022/06/27 05:33:47;;;;;;;;;;;18.20;99.90;;;;;;5083833;27;37319;-53
2022/06/27 05:36:14;;;;;;;;;;;18.20;99.90;;;;;;5083283;27;38471;-53
2022/06/27 05:38:41;;;;;;;;;;;18.20;99.90;;;;;;5082839;27;37807;-53
2022/06/27 05:41:10;;;;;;;;;;;18.20;99.90;;;;;;5084363;27;35983;-52
2022/06/27 05:43:38;;;;;;;;;;;18.20;99.90;;;;;;5080196;27;37093;-52
2022/06/27 05:46:06;;;;;;;;;;;18.20;99.90;;;;;;5082082;27;39657;-54
2022/06/27 05:48:33;;;;;;;;;;;18.20;99.90;;;;;;5083087;27;37119;-54
2022/06/27 05:51:00;;;;;;;;;;;18.20;99.90;;;;;;5084275;27;35242;-54
2022/06/27 05:53:28;;;;;;;;;;;18.20;99.90;;;;;;5086438;28;37932;-55
2022/06/27 05:55:55;;;;;;;;;;;18.20;99.90;;;;;;5084926;27;38997;-55
2022/06/27 05:58:24;;;;;;;;;;;18.20;99.90;;;;;;5086530;27;36387;-55
2022/06/27 06:00:52;;;;;;;;;;;18.20;99.90;;;;;;5086045;27;35198;-54
2022/06/27 06:03:19;;;;;;;;;;;18.20;99.90;;;;;;5086359;27;37582;-55
2022/06/27 06:05:46;;;;;;;;;;;18.20;99.90;;;;;;5084268;27;38538;-55
2022/06/27 06:08:14;;;;;;;;;;;18.20;99.90;;;;;;5085908;28;36441;-54
2022/06/27 06:10:41;;;;;;;;;;;18.20;99.90;;;;;;5086735;27;35939;-54
2022/06/27 06:13:08;;;;;;;;;;;18.30;99.90;;;;;;5085796;27;37733;-54
2022/06/27 06:15:38;;;;;;;;;;;18.30;99.90;;;;;;5086727;27;37846;-55
2022/06/27 06:18:05;;;;;;;;;;;18.30;99.90;;;;;;5084506;27;38627;-55
2022/06/27 06:20:32;;;;;;;;;;;18.20;99.90;;;;;;5084198;28;38342;-55
2022/06/27 06:23:00;;;;;;;;;;;18.20;99.90;;;;;;5085011;27;37858;-55
2022/06/27 06:25:27;;;;;;;;;;;18.20;99.90;;;;;;5085085;27;39109;-54
2022/06/27 06:27:56;;;;;;;;;;;18.20;99.90;;;;;;5086024;27;39520;-53
2022/06/27 06:30:24;;;;;;;;;;;18.20;99.90;;;;;;5086331;27;35095;-54
2022/06/27 06:32:55;;;;;;;;;;;18.20;99.90;;;;;;5086547;27;38300;-54
2022/06/27 06:35:22;;;;;;;;;;;18.20;99.90;;;;;;5085439;27;39011;-55
2022/06/27 06:37:51;;;;;;;;;;;18.20;99.90;;;;;;5086565;28;37539;-55
2022/06/27 06:40:18;;;;;;;;;;;18.20;99.90;;;;;;5085521;27;35077;-54
2022/06/27 06:42:45;;;;;;;;;;;18.20;99.90;;;;;;5085443;27;37122;-54
2022/06/27 06:45:12;;;;;;;;;;;18.20;99.90;;;;;;5085635;27;37384;-54
2022/06/27 06:47:43;;;;;;;;;;;18.20;99.90;;;;;;5084906;27;37352;-55
2022/06/27 06:50:15;;;;;;;;;;;18.20;99.90;;;;;;5084842;28;38753;-54
2022/06/27 06:52:42;;;;;;;;;;;18.20;99.90;;;;;;5085715;27;38015;-55
2022/06/27 06:55:11;;;;;;;;;;;18.20;99.90;;;;;;5085257;28;38078;-54
2022/06/27 06:57:38;;;;;;;;;;;18.20;99.90;;;;;;5084531;27;37324;-54
2022/06/27 07:00:07;;;;;;;;;;;18.20;99.90;;;;;;5085985;27;35426;-54
2022/06/27 07:02:34;;;;;;;;;;;18.20;99.90;;;;;;5084665;27;37590;-54
2022/06/27 07:05:04;;;;;;;;;;;18.20;99.90;;;;;;5085565;27;39084;-54
2022/06/27 07:07:34;;;;;;;;;;;18.20;99.90;;;;;;5084301;28;37536;-54
2022/06/27 07:10:02;;;;;;;;;;;18.20;99.90;;;;;;5084493;28;38660;-55
2022/06/27 07:12:33;;;;;;;;;;;18.30;99.90;;;;;;5084901;27;36904;-54
2022/06/27 07:15:00;;;;;;;;;;;18.30;99.90;;;;;;5084841;27;38617;-54
2022/06/27 07:17:28;;;;;;;;;;;18.30;99.90;;;;;;5085400;28;36366;-54
2022/06/27 07:19:56;;;;;;;;;;;18.30;99.90;;;;;;5085787;27;36393;-54
2022/06/27 07:22:23;;;;;;;;;;;18.30;99.90;;;;;;5085263;27;38454;-54
2022/06/27 07:24:52;;;;;;;;;;;18.30;99.90;;;;;;5084705;28;38640;-55
2022/06/27 07:27:20;;;;;;;;;;;18.40;99.90;;;;;;5084706;27;37547;-54
2022/06/27 07:29:48;;;;;;;;;;;18.30;99.90;;;;;;5085454;27;36923;-55
2022/06/27 07:32:16;;;;;;;;;;;18.40;99.90;;;;;;5084898;27;36340;-54
2022/06/27 07:34:43;;;;;;;;;;;18.40;99.90;;;;;;5085146;27;39804;-54
2022/06/27 07:37:10;;;;;;;;;;;18.40;99.90;;;;;;5083372;27;37455;-54
2022/06/27 07:39:37;;;;;;;;;;;18.40;99.90;;;;;;5085955;27;38944;-54
2022/06/27 07:42:06;;;;;;;;;;;18.40;99.90;;;;;;5084494;27;37487;-54
2022/06/27 07:44:34;;;;;;;;;;;18.40;99.90;;;;;;5084568;27;38851;-54
2022/06/27 07:47:03;;;;;;;;;;;18.30;99.90;;;;;;5083738;27;37774;-54
2022/06/27 07:49:30;;;;;;;;;;;18.30;99.90;;;;;;5082816;27;37579;-54
2022/06/27 07:51:57;;;;;;;;;;;18.30;99.90;;;;;;5083625;28;38528;-54
2022/06/27 07:54:25;;;;;;;;;;;18.30;99.90;;;;;;5078852;28;39797;-54
2022/06/27 07:56:52;;;;;;;;;;;18.30;99.90;;;;;;5081202;27;37680;-54
2022/06/27 07:59:20;;;;;;;;;;;18.30;99.90;;;;;;5083301;27;36182;-54
2022/06/27 08:01:47;;;;;;;;;;;18.30;99.90;;;;;;5083315;28;37542;-54
2022/06/27 08:04:15;;;;;;;;;;;18.30;99.90;;;;;;5082811;27;38373;-54
2022/06/27 08:06:43;;;;;;;;;;;18.20;99.90;;;;;;5082335;28;36510;-55
2022/06/27 08:09:10;;;;;;;;;;;18.20;99.90;;;;;;5083805;28;35179;-54
2022/06/27 08:11:38;;;;;;;;;;;18.20;99.90;;;;;;5081630;27;37572;-55
2022/06/27 08:14:07;;;;;;;;;;;18.30;99.90;;;;;;5081886;27;38498;-54
2022/06/27 08:16:36;;;;;;;;;;;18.30;99.90;;;;;;5082756;27;39059;-54
2022/06/27 08:19:04;;;;;;;;;;;18.30;99.90;;;;;;5080266;27;35556;-54
2022/06/27 08:21:31;;;;;;;;;;;18.40;99.90;;;;;;5082823;27;37695;-54
2022/06/27 08:24:00;;;;;;;;;;;18.40;99.90;;;;;;5082918;27;37174;-54
2022/06/27 08:26:28;;;;;;;;;;;18.40;99.90;;;;;;5082232;27;38401;-54
2022/06/27 08:28:57;;;;;;;;;;;18.40;99.90;;;;;;5082883;27;35220;-54
2022/06/27 08:31:24;;;;;;;;;;;18.50;99.90;;;;;;5083741;27;37649;-54
2022/06/27 08:33:55;;;;;;;;;;;18.50;99.90;;;;;;5082273;28;39723;-54
2022/06/27 08:36:23;;;;;;;;;;;18.50;99.90;;;;;;5082665;27;38058;-54
2022/06/27 08:38:50;;;;;;;;;;;18.50;99.90;;;;;;5082392;28;36840;-54
2022/06/27 08:41:18;;;;;;;;;;;18.50;99.90;;;;;;5083060;27;37820;-54
2022/06/27 08:43:47;;;;;;;;;;;18.60;99.90;;;;;;5081593;27;38543;-54
2022/06/27 08:46:15;;;;;;;;;;;18.50;99.90;;;;;;5082181;27;37707;-55
2022/06/27 08:48:42;;;;;;;;;;;18.60;99.90;;;;;;5082653;27;38307;-54
2022/06/27 08:51:11;;;;;;;;;;;18.60;99.90;;;;;;5082773;27;38036;-54
2022/06/27 08:53:38;;;;;;;;;;;18.60;99.90;;;;;;5082492;27;38486;-54
2022/06/27 08:56:08;;;;;;;;;;;18.60;99.90;;;;;;5082139;27;37317;-54
2022/06/27 08:58:36;;;;;;;;;;;18.60;99.90;;;;;;5082165;27;36969;-54
2022/06/27 09:01:03;;;;;;;;;;;18.60;99.90;;;;;;5082076;27;36465;-54
2022/06/27 09:03:30;;;;;;;;;;;18.60;99.90;;;;;;5082773;27;39718;-54
2022/06/27 09:05:58;;;;;;;;;;;18.60;99.90;;;;;;5082138;27;39170;-54
2022/06/27 09:08:28;;;;;;;;;;;18.60;99.90;;;;;;5082123;28;36662;-54
2022/06/27 09:10:56;;;;;;;;;;;18.60;99.90;;;;;;5082153;27;37523;-54
2022/06/27 09:13:24;;;;;;;;;;;18.60;99.90;;;;;;5081824;27;38559;-54
2022/06/27 09:15:52;;;;;;;;;;;18.70;99.90;;;;;;5082723;27;38829;-54
2022/06/27 09:18:20;;;;;;;;;;;18.70;99.90;;;;;;5081206;28;37893;-54
2022/06/27 09:20:49;;;;;;;;;;;19.00;99.90;;;;;;5082498;27;37199;-54
2022/06/27 09:23:32;;;;;;;;;;;19.00;99.90;;;;;;5081827;27;39384;-54
2022/06/27 09:26:00;;;;;;;;;;;19.10;99.90;;;;;;5081589;27;36351;-54
2022/06/27 09:28:37;;;;;;;;;;;19.10;99.90;;;;;;5083784;27;40966;-54
2022/06/27 09:31:04;;;;;;;;;;;19.10;99.90;;;;;;5082606;27;37624;-54
2022/06/27 09:33:32;;;;;;;;;;;19.20;99.90;;;;;;5082400;28;38830;-54
2022/06/27 09:35:59;;;;;;;;;;;19.10;99.90;;;;;;5083085;27;37848;-54
2022/06/27 09:38:27;;;;;;;;;;;19.10;99.90;;;;;;5081732;27;36548;-54
2022/06/27 09:40:55;;;;;;;;;;;19.10;99.90;;;;;;5081925;27;36657;-54
2022/06/27 09:43:23;;;;;;;;;;;19.00;99.90;;;;;;5081387;27;39171;-54
2022/06/27 09:45:51;;;;;;;;;;;19.00;99.90;;;;;;5081845;27;37314;-54
2022/06/27 09:48:18;;;;;;;;;;;19.00;99.90;;;;;;5082220;27;37038;-54
2022/06/27 09:50:47;;;;;;;;;;;19.00;99.90;;;;;;5081047;28;37813;-54
2022/06/27 09:53:14;;;;;;;;;;;19.00;99.90;;;;;;5082637;27;38598;-54
2022/06/27 09:55:42;;;;;;;;;;;19.00;99.90;;;;;;5081852;28;36419;-54
2022/06/27 09:58:11;;;;;;;;;;;19.00;99.90;;;;;;5082203;27;39454;-54
2022/06/27 10:00:40;;;;;;;;;;;18.90;99.90;;;;;;5079425;28;38618;-55
2022/06/27 10:03:07;;;;;;;;;;;19.00;99.90;;;;;;5081437;27;37230;-54
2022/06/27 10:05:34;;;;;;;;;;;19.00;99.90;;;;;;5081354;27;37878;-55
2022/06/27 10:08:02;;;;;;;;;;;19.00;99.90;;;;;;5081545;28;35171;-54
2022/06/27 10:10:29;;;;;;;;;;;19.00;99.90;;;;;;5081008;27;37609;-54
2022/06/27 10:12:57;;;;;;;;;;;18.90;99.90;;;;;;5081037;27;38494;-54
2022/06/27 10:15:27;;;;;;;;;;;18.90;99.90;;;;;;5080993;27;37964;-54
2022/06/27 10:17:55;;;;;;;;;;;18.90;99.90;;;;;;5080906;27;38750;-54
2022/06/27 10:20:28;;;;;;;;;;;18.90;99.90;;;;;;5081157;28;37578;-54
2022/06/27 10:23:14;;;;;;;;;;;18.90;99.90;;;;;;5081485;27;39467;-54
2022/06/27 10:25:42;;;;;;;;;;;18.90;99.90;;;;;;5080753;28;38068;-58
2022/06/27 10:28:18;;;;;;;;;;;18.90;99.90;;;;;;5080677;27;36021;-58
2022/06/27 10:30:47;;;;;;;;;;;19.00;99.90;;;;;;5081478;27;38180;-58
2022/06/27 10:33:32;;;;;;;;;;;19.00;99.90;;;;;;5081800;27;37979;-58
2022/06/27 10:36:05;;;;;;;;;;;19.00;99.90;;;;;;5070166;27;38007;-58
2022/06/27 10:38:32;;;;;;;;;;;19.00;99.90;;;;;;5084214;27;36319;-58
2022/06/27 10:41:00;;;;;;;;;;;19.00;99.90;;;;;;5084661;27;36348;-58
2022/06/27 10:43:56;;;;;;;;;;;19.00;99.90;;;;;;5084819;28;40601;-60
2022/06/27 10:46:54;;;;;;;;;;;19.10;99.90;;;;;;5054225;27;37300;-58
2022/06/27 10:49:23;;;;;;;;;;;19.10;99.90;;;;;;5084840;27;36497;-58
2022/06/27 10:51:51;;;;;;;;;;;19.10;99.90;;;;;;5085377;27;38192;-60
2022/06/27 10:54:18;;;;;;;;;;;19.10;99.90;;;;;;5083828;27;39112;-58
2022/06/27 10:56:46;;;;;;;;;;;19.10;99.90;;;;;;5083412;27;36547;-58
2022/06/27 10:59:29;;;;;;;;;;;19.10;99.90;;;;;;5083682;27;36084;-58
2022/06/27 11:02:10;;;;;;;;;;;19.10;99.90;;;;;;5084366;28;37981;-60
2022/06/27 11:04:38;;;;;;;;;;;19.20;99.90;;;;;;5084274;27;38371;-58
2022/06/27 11:07:06;;;;;;;;;;;19.20;99.90;;;;;;5084104;27;37481;-54
2022/06/27 11:09:36;;;;;;;;;;;19.30;99.90;;;;;;5082608;27;36184;-54
2022/06/27 11:12:05;;;;;;;;;;;19.30;99.90;;;;;;5083754;27;36716;-54
2022/06/27 11:14:42;;;;;;;;;;;19.30;99.90;;;;;;5082416;28;37056;-54
2022/06/27 11:17:24;;;;;;;;;;;19.40;99.90;;;;;;5083916;27;36413;-54
2022/06/27 11:20:06;;;;;;;;;;;19.30;99.90;;;;;;5083644;27;37434;-54
2022/06/27 11:22:35;;;;;;;;;;;19.40;99.90;;;;;;5083097;27;39173;-55
2022/06/27 11:25:02;;;;;;;;;;;19.40;99.90;;;;;;5080692;27;38424;-54
2022/06/27 11:27:43;;;;;;;;;;;19.30;99.90;;;;;;5081210;27;37413;-54
2022/06/27 11:33:04;;;;;;;;;;;19.30;99.90;;;;;;5065184;28;39723;-54
2022/06/27 11:35:33;;;;;;;;;;;19.30;99.90;;;;;;5082825;27;38440;-54
2022/06/27 11:38:05;;;;;;;;;;;19.30;99.90;;;;;;5084318;27;38604;-54
2022/06/27 11:40:32;;;;;;;;;;;19.30;99.90;;;;;;5084314;27;36705;-54
2022/06/27 11:42:59;;;;;;;;;;;19.30;99.90;;;;;;5082183;27;39178;-54
2022/06/27 11:45:26;;;;;;;;;;;19.30;99.90;;;;;;5083702;27;39105;-54
2022/06/27 11:47:53;;;;;;;;;;;19.30;99.90;;;;;;5082054;27;39561;-54
2022/06/27 11:50:20;;;;;;;;;;;19.30;99.90;;;;;;5080503;27;36326;-54
2022/06/27 11:52:48;;;;;;;;;;;19.30;99.90;;;;;;5082751;27;37509;-54
2022/06/27 11:55:17;;;;;;;;;;;19.30;99.90;;;;;;5082846;28;38165;-54
2022/06/27 11:57:44;;;;;;;;;;;19.30;99.90;;;;;;5080184;27;39729;-55
2022/06/27 12:00:19;;;;;;;;;;;19.30;99.90;;;;;;5082793;27;35091;-54
2022/06/27 12:02:48;;;;;;;;;;;19.30;99.90;;;;;;5082804;27;38762;-55
2022/06/27 12:05:18;;;;;;;;;;;19.30;99.90;;;;;;5082989;28;37344;-55
2022/06/27 12:07:55;;;;;;;;;;;19.30;99.90;;;;;;5082213;27;37837;-54
2022/06/27 12:10:36;;;;;;;;;;;19.30;99.90;;;;;;5082551;27;36565;-54
2022/06/27 12:13:04;;;;;;;;;;;19.30;99.90;;;;;;5081680;28;37328;-54
2022/06/27 12:15:31;;;;;;;;;;;19.30;99.90;;;;;;5082055;27;40011;-54
2022/06/27 12:17:58;;;;;;;;;;;19.30;99.90;;;;;;5082701;27;36151;-54
2022/06/27 12:20:26;;;;;;;;;;;19.30;99.90;;;;;;5083238;27;36423;-54
2022/06/27 12:22:53;;;;;;;;;;;19.30;99.90;;;;;;5083358;27;39240;-59
2022/06/27 12:25:20;;;;;;;;;;;19.30;99.90;;;;;;5082812;27;37105;-59
2022/06/27 12:27:49;;;;;;;;;;;19.30;99.90;;;;;;5082851;27;38399;-59
2022/06/27 12:30:17;;;;;;;;;;;19.30;99.90;;;;;;5081804;27;36401;-59
2022/06/27 12:32:44;;;;;;;;;;;19.30;99.90;;;;;;5081730;27;40123;-59
2022/06/27 12:35:12;;;;;;;;;;;19.40;99.90;;;;;;5083098;27;37253;-59
2022/06/27 12:37:39;;;;;;;;;;;19.40;99.90;;;;;;5082899;27;37949;-59
2022/06/27 12:40:08;;;;;;;;;;;19.40;99.90;;;;;;5082838;28;36641;-59
2022/06/27 12:42:36;;;;;;;;;;;19.40;99.90;;;;;;5082296;27;37668;-59
2022/06/27 12:45:04;;;;;;;;;;;19.40;99.90;;;;;;5082495;27;39271;-59
2022/06/27 12:47:31;;;;;;;;;;;19.40;99.90;;;;;;5081663;27;37823;-59
2022/06/27 12:49:58;;;;;;;;;;;19.40;99.90;;;;;;5082991;27;37088;-59
2022/06/27 12:52:25;;;;;;;;;;;19.50;99.90;;;;;;5083071;27;38794;-59
2022/06/27 12:54:52;;;;;;;;;;;19.50;99.90;;;;;;5081914;27;38205;-59
2022/06/27 12:57:20;;;;;;;;;;;19.50;99.90;;;;;;5081167;27;37786;-59
2022/06/27 12:59:47;;;;;;;;;;;19.50;99.90;;;;;;5082424;27;35061;-59
2022/06/27 13:02:16;;;;;;;;;;;19.50;99.90;;;;;;5082179;27;37692;-59
2022/06/27 13:04:43;;;;;;;;;;;19.40;99.90;;;;;;5082265;27;37694;-59
2022/06/27 13:07:10;;;;;;;;;;;19.40;99.90;;;;;;5082724;27;39013;-59
2022/06/27 13:09:39;;;;;;;;;;;19.40;99.90;;;;;;5082392;28;35764;-59
2022/06/27 13:12:06;;;;;;;;;;;19.40;99.90;;;;;;5080319;27;40039;-59
2022/06/27 13:14:33;;;;;;;;;;;19.40;99.90;;;;;;5079627;27;38551;-59
2022/06/27 13:17:03;;;;;;;;;;;19.40;99.90;;;;;;5081319;27;35150;-59
2022/06/27 13:19:31;;;;;;;;;;;19.40;99.90;;;;;;5080809;27;36441;-59
2022/06/27 13:21:59;;;;;;;;;;;19.40;99.90;;;;;;5081165;27;38583;-59
2022/06/27 13:24:26;;;;;;;;;;;19.40;99.90;;;;;;5082020;27;37143;-59
2022/06/27 13:26:54;;;;;;;;;;;19.40;99.90;;;;;;5082197;27;39544;-54
2022/06/27 13:29:21;;;;;;;;;;;19.40;99.90;;;;;;5082132;27;36824;-54
2022/06/27 13:31:49;;;;;;;;;;;19.40;99.90;;;;;;5081675;28;36378;-53
2022/06/27 13:34:16;;;;;;;;;;;19.40;99.90;;;;;;5082362;27;36948;-54
2022/06/27 13:36:45;;;;;;;;;;;19.40;99.90;;;;;;5081867;27;40132;-54
2022/06/27 13:39:12;;;;;;;;;;;19.40;99.90;;;;;;5082494;27;36298;-54
2022/06/27 13:41:42;;;;;;;;;;;19.40;99.90;;;;;;5080474;28;38925;-54
2022/06/27 13:44:09;;;;;;;;;;;19.40;99.90;;;;;;5081935;27;38222;-54
2022/06/27 13:46:36;;;;;;;;;;;19.40;99.90;;;;;;5080944;28;36406;-54
2022/06/27 13:49:03;;;;;;;;;;;19.40;99.90;;;;;;5081878;27;37406;-54
2022/06/27 13:51:30;;;;;;;;;;;19.40;99.90;;;;;;5081834;28;36569;-54
2022/06/27 13:53:58;;;;;;;;;;;19.40;99.90;;;;;;5081459;27;38234;-54
2022/06/27 13:56:25;;;;;;;;;;;19.40;99.90;;;;;;5079917;27;37456;-54
2022/06/27 13:58:52;;;;;;;;;;;19.40;99.90;;;;;;5080857;27;35476;-54
2022/06/27 14:01:19;;;;;;;;;;;19.40;99.90;;;;;;5081044;27;37923;-54
2022/06/27 14:03:46;;;;;;;;;;;19.40;99.90;;;;;;5081934;27;37181;-54
2022/06/27 14:08:59;;;;;;;;;;;19.30;99.90;;;;;;5082067;28;37361;-53
2022/06/27 14:11:27;;;;;;;;;;;19.40;99.90;;;;;;5080138;27;36485;-54
2022/06/27 14:13:54;;;;;;;;;;;19.30;99.90;;;;;;5084675;27;38873;-54
2022/06/27 14:16:23;;;;;;;;;;;19.40;99.90;;;;;;5084642;28;37861;-54
2022/06/27 14:18:51;;;;;;;;;;;19.40;99.90;;;;;;5085072;27;36939;-54
2022/06/27 14:21:18;;;;;;;;;;;19.40;99.90;;;;;;5085036;27;36603;-54
2022/06/27 14:23:45;;;;;;;;;;;19.50;99.90;;;;;;5084985;27;39146;-54
2022/06/27 14:26:13;;;;;;;;;;;19.40;99.90;;;;;;5084741;27;38170;-54
2022/06/27 14:28:40;;;;;;;;;;;19.50;99.90;;;;;;5084810;27;35087;-54